Huvudsida
METAR-TAF:

METAR-TAF

Flygplatser :

Roskildes flygplats

Roskilde, Danmark

latitud: 55-35N, longitud: 012-08E, höjd: 44 m

Aktuellt väderrapport

Denna rapport gjordes för 5 minuter sedan, klockan 14:50 UTC
Vind 18 kt från väst/nordväst
Temperatur 20°C
Fuktighet 49%
Tryck 1014 hPa
Sikt 10 km eller mer

METAR: EKRK 201450Z AUTO 30018KT 9999NDV NCD 20/09 Q1014

Tid: 16:55 (14:55 UTC)

Väderprognos

Denna rapport gjordes för 34 minuter sedan, klockan 14:21 UTC
Prognos gäller från 20 kl. 15 UTC till 20 kl. 24 UTC
Vind 18 kt från väst
Sikt 10 km eller mer
Brutna moln på en höjd av 4000 ft
Blir
från 20 kl. 17 UTC till 20 kl. 20 UTC
Vind 8 kt från väst/nordväst

TAF: EKRK 201421Z 2015/2024 28018KT 9999 BKN040 BECMG 2017/2020 29008KT

Aktuella väderrapporter och prognoser från 4000 flygplatser (METAR- och TAF-rapporter).

De tillgängliga stationerna syns som gula och röda prickar på kartan.

För musen över prickarna för att se namnen på stationerna.

Klicka sedan för att få väderrapporter och prognoser.

För att ändra kartan: Klicka på de gröna knapparna med ett svart kors på för att zooma in; den gröna knappen med ett streck på för att zooma ut; eller på de gröna pilarna för angränsande kartor.


METAR-TAF: